Latest Weather Observations for Viewbank

IDV60801

Issued at 11:02 am EDT Saturday 28 February 2015 (issued every 30 minutes, with the page automatically refreshed every 10 minutes)

About weather observations | Map of weather stations | Latest weather observations for VIC | Other Formats
Station Details ID: 086068 Name: VIEWBANK Lat: -37.74 Lon: 145.10 Height: 66.1 m
Data from the previous 72 hours. | See also: Recent months at Viewbank
Date/Time
EDT
Temp
°C
App
Temp
°C
Dew
Point
Rel
Hum
%
Delta-T
°C
Wind Press
QNH
hPa
Press
MSL
hPa
Rain
since 9 am
mm
Dir
 
Spd
km/h
Gust
km/h
Spd
kts
Gust
kts
28/11:00am 22.5 21.9 12.4 52 5.8 NNE 7 15 4 8 1006.2 1006.0 0.0
28/10:30am 20.9 21.6 16.1 74 2.9 NNE 7 15 4 8 1006.5 1006.3 0.0
28/10:00am 19.6 20.0 15.3 76 2.5 NE 7 13 4 7 1007.0 1006.8 0.0
28/09:30am 18.7 18.3 15.2 80 2.1 ENE 11 13 6 7 1007.0 1006.8 0.0
28/09:00am 18.4 18.8 15.3 82 1.8 ENE 7 9 4 5 1007.2 1007.0 0.0
28/08:30am 18.2 17.9 14.5 79 2.1 NE 9 13 5 7 1006.9 1006.7 0.0
28/08:00am 17.7 17.5 14.6 82 1.8 NE 9 13 5 7 1006.8 1006.6 0.0
28/07:30am 17.3 18.4 14.6 84 1.6 ENE 2 7 1 4 1006.7 1006.5 0.0
28/07:00am 17.2 17.4 14.3 83 1.7 NE 6 7 3 4 1006.6 1006.4 0.0
28/06:30am 17.4 18.6 13.9 80 2.0 CALM 0 6 0 3 1006.8 1006.6 0.0
28/06:00am 17.7 17.6 14.0 79 2.1 WNW 7 11 4 6 1006.9 1006.7 0.0
28/05:30am 17.2 16.9 14.5 84 1.6 NNW 9 17 5 9 1006.3 1006.1 0.0
28/05:00am 16.9 16.5 14.2 84 1.5 ENE 9 15 5 8 1006.0 1005.8 0.0
28/04:30am 17.0 17.0 14.1 83 1.7 ENE 7 13 4 7 1006.8 1006.6 0.0
28/04:00am 17.0 17.6 14.3 84 1.6 NE 4 7 2 4 1007.7 1007.5 0.0
28/03:30am 17.0 17.5 13.9 82 1.8 NE 4 7 2 4 1008.4 1008.2 0.0
28/03:00am 17.2 18.5 14.1 82 1.8 CALM 0 0 0 0 1008.6 1008.4 0.0
28/02:30am 17.3 18.4 13.6 79 2.1 CALM 0 0 0 0 1009.1 1008.9 0.0
28/02:00am 17.4 18.5 13.5 78 2.2 CALM 0 0 0 0 1009.6 1009.4 0.0
28/01:30am 17.5 17.4 13.4 77 2.3 SW 6 7 3 4 1009.8 1009.6 0.0
28/01:00am 17.6 17.5 13.3 76 2.4 SW 6 7 3 4 1010.0 1009.8 0.0
28/12:30am 17.8 17.8 13.5 76 2.4 SW 6 7 3 4 1010.4 1010.2 0.0
28/12:00am 17.9 17.9 13.6 76 2.4 SW 6 7 3 4 1010.5 1010.3 0.0
 
Date/Time
EDT
Temp
°C
App
Temp
°C
Dew
Point
Rel
Hum
%
Delta-T
°C
Wind Press
QNH
hPa
Press
MSL
hPa
Rain
since 9 am
mm
Dir
 
Spd
km/h
Gust
km/h
Spd
kts
Gust
kts
27/11:30pm 17.9 17.3 13.6 76 2.4 SSW 9 11 5 6 1010.8 1010.6 0.0
27/11:00pm 18.0 17.8 13.7 76 2.5 SW 7 11 4 6 1011.1 1010.9 0.0
27/10:30pm 18.2 17.4 13.9 76 2.5 SSW 11 17 6 9 1010.8 1010.6 0.0
27/10:00pm 18.4 17.9 13.9 75 2.6 SSW 9 17 5 9 1010.7 1010.5 0.0
27/09:30pm 19.0 18.1 13.8 72 3.0 SSW 11 17 6 9 1010.6 1010.4 0.0
27/09:00pm 19.6 18.5 14.2 71 3.1 S 13 17 7 9 1010.2 1010.0 0.0
27/08:30pm 20.2 19.2 14.6 70 3.3 S 13 20 7 11 1009.9 1009.7 0.0
27/08:00pm 20.7 20.4 14.4 67 3.7 S 9 13 5 7 1009.2 1009.0 0.0
27/07:30pm 21.4 21.6 14.3 64 4.2 SE 6 13 3 7 1009.0 1008.8 0.0
27/07:00pm 22.1 21.7 14.0 60 4.7 SE 9 19 5 10 1008.7 1008.5 0.0
27/06:30pm 23.0 22.4 13.5 55 5.5 SSE 9 15 5 8 1008.8 1008.6 0.0
27/06:00pm 23.9 22.5 10.9 44 7.3 S 9 17 5 9 1008.7 1008.5 0.0
27/05:30pm 23.6 21.5 9.6 41 7.6 SSE 11 17 6 9 1008.8 1008.6 0.0
27/05:00pm 24.6 21.8 8.5 36 8.7 S 13 24 7 13 1009.0 1008.8 0.0
27/04:30pm 25.3 22.5 10.0 38 8.5 S 15 24 8 13 1008.8 1008.6 0.0
27/04:00pm 25.8 23.5 10.4 38 8.6 S 13 20 7 11 1008.7 1008.5 0.0
27/03:30pm 26.0 24.4 11.4 40 8.3 SW 11 19 6 10 1009.2 1009.0 0.0
27/03:00pm 25.9 24.6 11.3 40 8.3 S 9 17 5 9 1009.3 1009.1 0.0
27/02:30pm 24.8 23.2 11.4 43 7.6 SSW 11 24 6 13 1009.7 1009.5 0.0
27/02:00pm 24.7 23.0 11.3 43 7.6 WSW 11 22 6 12 1010.0 1009.8 0.0
27/01:30pm 24.0 22.8 11.7 46 7.0 SSW 9 19 5 10 1010.0 1009.8 0.0
27/01:00pm 23.5 22.9 12.2 49 6.4 WSW 7 11 4 6 1010.4 1010.2 0.0
27/12:30pm 23.2 22.3 12.5 51 6.1 S 9 20 5 11 1010.9 1010.7 0.0
27/12:00pm 22.7 22.2 12.0 50 6.1 SE 6 13 3 7 1011.0 1010.8 0.0
27/11:30am 20.8 20.0 13.0 61 4.5 SW 9 15 5 8 1011.5 1011.3 0.0
27/11:00am 20.1 19.6 12.8 63 4.1 SW 7 15 4 8 1011.6 1011.4 0.0
27/10:30am 19.5 19.1 13.0 66 3.7 E 7 15 4 8 1011.5 1011.3 0.0
27/10:00am 18.7 18.2 13.8 73 2.8 ESE 9 13 5 7 1011.3 1011.1 0.0
27/09:30am 17.6 18.0 13.7 78 2.2 NNE 4 7 2 4 1011.4 1011.2 0.0
27/09:00am 17.1 17.8 14.6 85 1.4 NE 4 7 2 4 1011.3 1011.1 0.0
27/08:30am 15.1 15.4 14.5 96 0.3 NNE 6 7 3 4 1011.1 1010.9 0.0
27/08:00am 13.6 13.6 13.6 100 0.0 NNE 6 6 3 3 1011.2 1011.0 0.0
27/07:30am 12.9 13.8 12.9 100 0.0 CALM 0 0 0 0 1010.7 1010.5 0.0
27/07:00am 12.6 13.4 12.4 99 0.1 CALM 0 4 0 2 1010.3 1010.1 0.0
27/06:30am 12.9 13.4 12.7 99 0.1 N 2 6 1 3 1010.1 1009.9 0.0
27/06:00am 13.0 13.9 12.8 99 0.1 CALM 0 0 0 0 1010.1 1009.9 0.0
27/05:30am 13.6 14.7 13.4 99 0.1 CALM 0 6 0 3 1010.3 1010.1 0.0
27/05:00am 14.0 14.1 13.8 99 0.1 W 6 7 3 4 1010.2 1010.0 0.0
27/04:30am 14.3 15.5 13.8 97 0.3 CALM 0 0 0 0 1010.0 1009.8 0.0
27/04:00am 14.9 15.5 14.3 96 0.3 W 4 6 2 3 1010.4 1010.2 0.0
27/03:30am 15.0 14.6 14.0 94 0.6 W 9 11 5 6 1011.0 1010.8 0.0
27/03:00am 15.1 14.9 13.6 91 0.8 WSW 7 9 4 5 1010.8 1010.6 0.0
27/02:30am 15.5 15.6 13.9 90 0.9 SW 6 6 3 3 1010.7 1010.5 0.0
27/02:00am 15.7 15.7 13.7 88 1.1 SSW 6 7 3 4 1010.7 1010.5 0.0
27/01:30am 15.9 15.8 13.4 85 1.4 SSW 6 7 3 4 1011.3 1011.1 0.0
27/01:00am 16.3 16.9 13.0 81 1.8 S 2 7 1 4 1011.4 1011.2 0.0
27/12:30am 16.7 16.2 12.8 78 2.2 SSW 7 11 4 6 1011.7 1011.5 0.0
27/12:00am 16.7 16.1 12.3 75 2.4 SW 7 9 4 5 1011.8 1011.6 0.0
 
Date/Time
EDT
Temp
°C
App
Temp
°C
Dew
Point
Rel
Hum
%
Delta-T
°C
Wind Press
QNH
hPa
Press
MSL
hPa
Rain
since 9 am
mm
Dir
 
Spd
km/h
Gust
km/h
Spd
kts
Gust
kts
26/11:30pm 17.0 15.8 11.7 71 2.9 SSW 9 15 5 8 1011.7 1011.5 0.0
26/11:00pm 17.4 16.5 11.2 67 3.4 S 7 11 4 6 1011.6 1011.4 0.0
26/10:30pm 18.2 17.0 11.7 66 3.6 S 9 13 5 7 1011.7 1011.5 0.0
26/10:00pm 18.3 17.2 13.2 72 2.9 SSW 11 17 6 9 1011.6 1011.4 0.0
26/09:30pm 18.6 17.7 13.7 73 2.8 SW 11 17 6 9 1011.5 1011.3 0.0
26/09:00pm 19.2 17.8 13.4 69 3.3 SW 13 20 7 11 1011.1 1010.9 0.0
26/08:30pm 19.7 18.3 13.4 67 3.6 SSW 13 26 7 14 1010.4 1010.2 0.0
26/08:00pm 20.2 18.8 14.6 70 3.3 SW 15 22 8 12 1010.0 1009.8 0.0
26/07:30pm 21.0 19.3 14.6 67 3.8 SW 17 24 9 13 1009.6 1009.4 0.0
26/07:00pm 22.5 20.8 14.6 61 4.7 SW 17 24 9 13 1009.2 1009.0 0.0
26/06:30pm 23.9 22.1 13.2 51 6.2 SSW 15 26 8 14 1009.0 1008.8 0.0
26/06:00pm 24.2 22.0 12.2 47 6.9 S 15 24 8 13 1008.9 1008.7 0.0
26/05:30pm 24.2 22.5 12.5 48 6.7 SSW 13 20 7 11 1009.0 1008.8 0.0
26/05:00pm 24.8 23.2 12.7 47 7.0 S 13 24 7 13 1009.0 1008.8 0.0
26/04:30pm 24.3 22.4 11.9 45 7.1 SSW 13 24 7 13 1009.3 1009.1 0.0
26/04:00pm 25.2 24.0 14.0 49 6.6 SSW 13 20 7 11 1009.3 1009.1 0.0
26/03:30pm 23.6 21.8 13.2 52 6.0 SW 15 28 8 15 1009.7 1009.5 0.0
26/03:00pm 24.3 23.0 13.8 52 6.2 SSW 13 22 7 12 1010.0 1009.8 0.0
26/02:30pm 23.9 22.9 14.6 56 5.5 S 13 22 7 12 1010.2 1010.0 0.0
26/02:00pm 23.1 21.5 13.8 55 5.4 SW 15 22 8 12 1010.4 1010.2 0.0
26/01:30pm 22.8 21.1 13.6 56 5.4 SSW 15 22 8 12 1010.6 1010.4 0.0
26/01:00pm 22.0 20.1 14.1 61 4.6 SSW 17 24 9 13 1010.8 1010.6 0.0
26/12:30pm 22.5 21.1 14.4 60 4.8 SW 15 28 8 15 1010.8 1010.6 0.0
26/12:00pm 22.5 22.0 14.9 62 4.5 SW 11 17 6 9 1011.0 1010.8 0.0
26/11:30am 20.8 21.4 15.8 73 3.0 SSW 7 15 4 8 1011.2 1011.0 0.0
26/11:00am 20.1 21.1 15.3 74 2.8 S 4 7 2 4 1011.2 1011.0 0.0
26/10:30am 19.5 19.7 15.8 79 2.2 WSW 9 13 5 7 1011.3 1011.1 0.0
26/10:00am 18.3 18.0 15.4 83 1.7 SW 11 15 6 8 1011.3 1011.1 0.0
26/09:30am 17.7 18.0 15.9 89 1.1 W 9 15 5 8 1011.0 1010.8 0.0
26/09:00am 17.2 17.2 15.2 88 1.2 W 9 15 5 8 1011.1 1010.9 0.0
26/08:30am 17.3 17.1 15.8 91 0.9 W 11 19 6 10 1010.6 1010.4 0.0
26/08:00am 16.4 18.2 16.4 100 0.0 NW 2 7 1 4 1010.5 1010.3 0.0
26/07:30am 16.0 17.9 15.8 99 0.1 CALM 0 0 0 0 1010.2 1010.0 0.0
26/07:00am 16.0 17.9 15.8 99 0.1 CALM 0 0 0 0 1009.9 1009.7 0.0
26/06:30am 16.0 17.9 15.8 99 0.1 CALM 0 0 0 0 1009.4 1009.2 0.0
26/06:00am 16.2 18.2 16.0 99 0.1 CALM 0 0 0 0 1009.1 1008.9 0.0
26/05:30am 16.5 17.5 16.3 99 0.1 N 6 9 3 5 1009.2 1009.0 0.0
26/05:00am 16.8 18.2 16.5 98 0.2 N 4 6 2 3 1009.0 1008.8 0.0
26/04:30am 17.0 17.7 16.2 95 0.5 W 7 13 4 7 1009.3 1009.1 0.0
26/04:00am 17.2 18.1 16.2 94 0.6 WNW 6 9 3 5 1009.0 1008.8 0.0
26/03:30am 17.7 18.5 16.4 92 0.8 W 7 13 4 7 1009.2 1009.0 0.0
26/03:00am 17.8 18.5 16.1 90 1.0 WNW 7 11 4 6 1009.2 1009.0 0.0
26/02:30am 18.0 18.6 15.8 87 1.3 WNW 7 13 4 7 1009.2 1009.0 0.0
26/02:00am 18.4 19.0 15.8 85 1.5 WNW 7 11 4 6 1009.4 1009.2 0.0
26/01:30am 18.1 18.4 15.0 82 1.8 W 7 11 4 6 1009.6 1009.4 0.0
26/01:00am 19.0 19.7 15.5 80 2.1 N 6 7 3 4 1009.4 1009.2 0.0
26/12:30am 18.9 20.6 15.2 79 2.2 CALM 0 0 0 0 1009.4 1009.2 0.0
26/12:00am 19.4 21.1 15.1 76 2.5 CALM 0 0 0 0 1009.6 1009.4 0.0
 
Date/Time
EDT
Temp
°C
App
Temp
°C
Dew
Point
Rel
Hum
%
Delta-T
°C
Wind Press
QNH
hPa
Press
MSL
hPa
Rain
since 9 am
mm
Dir
 
Spd
km/h
Gust
km/h
Spd
kts
Gust
kts
25/11:30pm 19.8 21.4 15.0 74 2.8 CALM 0 0 0 0 1009.9 1009.7 0.0
25/11:00pm 20.0 21.6 14.8 72 3.1 CALM 0 0 0 0 1009.9 1009.7 0.0
25/10:30pm 20.5 22.0 14.6 69 3.5 CALM 0 0 0 0 1009.6 1009.4 0.0
25/10:00pm 21.2 22.8 14.8 67 3.8 CALM 0 0 0 0 1009.6 1009.4 0.0
25/09:30pm 21.6 23.0 14.3 63 4.3 CALM 0 0 0 0 1009.5 1009.3 0.0
25/09:00pm 22.1 22.7 14.2 61 4.6 S 4 7 2 4 1009.4 1009.2 0.0
25/08:30pm 22.9 22.9 14.2 58 5.1 SE 7 17 4 9 1009.3 1009.1 0.0
25/08:00pm 23.6 23.3 14.3 56 5.5 SE 9 19 5 10 1009.2 1009.0 0.0
25/07:30pm 24.4 24.0 14.2 53 6.0 SSE 9 15 5 8 1009.4 1009.2 0.0
25/07:00pm 25.7 25.1 14.5 50 6.7 SSE 11 19 6 10 1009.3 1009.1 0.0
25/06:30pm 26.7 25.7 14.5 47 7.3 S 13 22 7 12 1009.1 1008.9 0.0
25/06:00pm 27.5 26.6 13.8 43 8.2 S 11 20 6 11 1009.1 1008.9 0.0
25/05:30pm 28.1 27.5 13.6 41 8.6 S 9 17 5 9 1009.3 1009.1 0.0
25/05:00pm 28.2 26.6 12.9 38 9.0 S 13 20 7 11 1009.5 1009.3 0.0
25/04:30pm 27.4 26.8 12.2 39 8.8 ENE 7 13 4 7 1009.8 1009.6 0.0
25/04:00pm 28.4 27.9 12.7 38 9.2 NW 7 15 4 8 1010.4 1010.2 0.0
25/03:30pm 27.5 26.6 12.7 40 8.7 SSW 9 19 5 10 1011.1 1010.9 0.0
25/03:00pm 26.6 26.2 14.0 46 7.5 SE 9 17 5 9 1011.6 1011.4 0.0
25/02:30pm 27.2 26.0 13.9 44 7.9 SW 13 22 7 12 1012.1 1011.9 0.0
25/02:00pm 25.3 25.0 13.2 47 7.1 SSW 7 17 4 9 1013.0 1012.7 0.0
25/01:30pm 26.0 25.2 14.1 47 7.1 SW 11 17 6 9 1013.4 1013.1 0.0
25/01:00pm 24.8 24.2 13.4 49 6.7 S 9 15 5 8 1014.1 1013.8 0.0
25/12:30pm 23.8 23.6 13.6 52 6.0 NW 7 9 4 5 1014.4 1014.1 0.0
25/12:00pm 22.0 22.3 13.4 58 5.0 ESE 4 11 2 6 1014.7 1014.4 0.0
25/11:30am 21.3 20.7 13.5 61 4.5 ENE 9 15 5 8 1014.9 1014.6 0.0

Other Formats:

Comma delimited format used in spreadsheet applications
http://www.bom.gov.au/fwo/IDV60801/IDV60801.95874.axf

JavaScript Object Notation format (JSON) in row-major order
http://www.bom.gov.au/fwo/IDV60801/IDV60801.95874.json